Aérodrome :
LOGIN :

S'inscrire | Disclaimer

   EN    FR    IT 

 










Légende :    VFR   VFR Marginal   IFR   IFR Intensif   IFR Très Intensif
Visi : 
Plafond : 
>= 8 km
>= 3000ft
5 à 8 km
1000 à 3000 ft
1500m à 5 km
500 à 1000 ft
800 à 1500m
200 à 500 ft
< 800m
< 200 ft
Symboles :   Orages  Brouillard  Fortes neiges  Fortes précipitations  Vent > 20 kt
SIGMETs :   Divers  Orages  Givrage  Turbulence  Onde Orograph.  Cendres Volcan.






- Altitude de l'aérodrome : 74 ft
- Code IATA : MRS


LFML - Marseille / Marignane

DERNIER METAR :
  • 190430Z AUTO 00000KT CAVOK 05/01 Q1010 BECMG 32010KT

METARs EXPIRÉS :
  • 190400Z AUTO VRB02KT CAVOK 05/01 Q1010 NOSIG
  • 190330Z AUTO 35005KT 320V020 CAVOK 06/01 Q1010 NOSIG
  • 190300Z AUTO 32005KT 280V340 CAVOK 06/01 Q1010 NOSIG
  • 190230Z AUTO 34009KT CAVOK 07/01 Q1010 NOSIG
  • 190200Z AUTO 34010KT CAVOK 07/01 Q1011 NOSIG

TAF TAF LFML
Valide du 19 à 03h jusqu'au 20 à 09h UTC


190200Z 1903/2009 32010KT CAVOK TX10/1913Z TN03/1904Z
BECMG 1919/1921 VRB03KT
ATIS : +33 4 42 31 15 15



MET'MAP, la Météo Aéronautique d'un coup d'oeil ! - Copyright ORBIFLY Décembre 2007 - Disclaimer

ORBIFLY MET'MAP TEAM :

Programmation & Développement : Alexandra Zaïnal
Conception & Développement : Baudouin d'Aumeries
Co-Programmation & Développement : Marc-Olivier Méhu
Soutien technique & logistique : Manuel Goepfert

Contact : metmap@orbifly.com




SOURCES & CREDITS :

   NOAA